Y-RH(METAR)
10/20 06:00
METAR Y-RH 192100Z 35013KT 6000 -RA SCT006 BKN010 13/13 Q1015 RMK
4ST006 7ST010 A3000 WIND EST=
戻る
トップページへ戻る
IMOC Co,.Ltd.